createdAt,value
2023-04-30T00:01:26.615Z,87322.63
2023-04-30T00:03:54.325Z,87321.09
2023-04-30T00:06:21.992Z,87322.97
2023-04-30T00:08:49.671Z,87326.72
2023-04-30T00:11:16.839Z,87334.25
2023-04-30T00:13:44.015Z,87329.38
2023-04-30T00:16:11.200Z,87339.88
2023-04-30T00:18:39.319Z,87334.63
2023-04-30T00:21:06.690Z,87331.56
2023-04-30T00:23:34.266Z,87331.91
2023-04-30T00:26:01.656Z,87325.53
2023-04-30T00:28:28.876Z,87330.75
2023-04-30T00:30:56.282Z,87326.25
2023-04-30T00:33:23.560Z,87333.78
2023-04-30T00:35:50.813Z,87322.84
2023-04-30T00:38:18.098Z,87326.97
2023-04-30T00:40:47.036Z,87324.34
2023-04-30T00:43:14.252Z,87320.53
2023-04-30T00:45:41.557Z,87318.66
2023-04-30T00:48:09.232Z,87319.75
2023-04-30T00:50:37.988Z,87313.75
2023-04-30T00:53:05.388Z,87311.50
2023-04-30T00:55:32.770Z,87320.84
2023-04-30T00:58:01.710Z,87321.25
2023-04-30T01:00:30.021Z,87319.34
2023-04-30T01:02:57.936Z,87322.34
2023-04-30T01:05:25.359Z,87323.41
2023-04-30T01:07:55.239Z,87326.03
2023-04-30T01:10:30.353Z,87320.03
2023-04-30T01:13:12.724Z,87322.22
2023-04-30T01:15:48.095Z,87322.19
2023-04-30T01:18:37.855Z,87324.44
2023-04-30T01:21:07.631Z,87336.47
2023-04-30T01:24:06.584Z,87346.97
2023-04-30T01:27:01.596Z,87340.91
2023-04-30T01:29:32.047Z,87350.72
2023-04-30T01:31:59.406Z,87348.84
2023-04-30T01:34:26.542Z,87341.69
2023-04-30T01:37:32.853Z,87341.31
2023-04-30T01:40:50.573Z,87336.41
2023-04-30T01:43:28.039Z,87332.66
2023-04-30T01:46:12.190Z,87337.56
2023-04-30T01:48:45.265Z,87334.19
2023-04-30T01:51:32.866Z,87325.53
2023-04-30T01:54:12.461Z,87327.81
2023-04-30T01:56:56.790Z,87323.66
2023-04-30T01:59:25.073Z,87320.66
2023-04-30T02:01:54.324Z,87325.19
2023-04-30T02:04:21.653Z,87323.31
2023-04-30T02:06:49.094Z,87324.41
2023-04-30T02:09:16.282Z,87332.69
2023-04-30T02:11:43.666Z,87324.41
2023-04-30T02:14:10.914Z,87326.28
2023-04-30T02:16:38.225Z,87326.66
2023-04-30T02:19:05.497Z,87337.53
2023-04-30T02:21:32.776Z,87334.88
2023-04-30T02:24:00.128Z,87339.75
2023-04-30T02:26:27.730Z,87330.69
2023-04-30T02:28:54.896Z,87334.06
2023-04-30T02:31:22.519Z,87324.31
2023-04-30T02:33:49.768Z,87334.03
2023-04-30T02:36:16.893Z,87332.91
2023-04-30T02:38:44.043Z,87326.88
2023-04-30T02:41:11.180Z,87331.03
2023-04-30T02:43:38.758Z,87338.56
2023-04-30T02:46:06.297Z,87328.03
2023-04-30T02:48:33.517Z,87335.88
2023-04-30T02:51:00.709Z,87337.75
2023-04-30T02:53:27.987Z,87341.09
2023-04-30T02:55:55.122Z,87342.19
2023-04-30T02:58:22.229Z,87338.78
2023-04-30T03:00:49.430Z,87342.50
2023-04-30T03:03:16.731Z,87340.63
2023-04-30T03:05:44.047Z,87342.88
2023-04-30T03:08:11.288Z,87345.06
2023-04-30T03:10:38.487Z,87346.59
2023-04-30T03:13:05.673Z,87343.16
2023-04-30T03:15:33.609Z,87346.56
2023-04-30T03:18:00.863Z,87351.78
2023-04-30T03:20:28.077Z,87346.88
2023-04-30T03:22:55.248Z,87350.28
2023-04-30T03:25:22.502Z,87346.16
2023-04-30T03:27:49.698Z,87346.53
2023-04-30T03:30:17.058Z,87340.44
2023-04-30T03:32:44.806Z,87344.94
2023-04-30T03:35:13.618Z,87334.81
2023-04-30T03:37:40.823Z,87341.59
2023-04-30T03:40:08.908Z,87337.06
2023-04-30T03:42:36.132Z,87339.31
2023-04-30T03:45:03.559Z,87327.28
2023-04-30T03:47:30.768Z,87329.09
2023-04-30T03:49:58.141Z,87334.81
2023-04-30T03:52:25.339Z,87337.03
2023-04-30T03:54:52.483Z,87335.53
2023-04-30T03:57:19.904Z,87334.38
2023-04-30T03:59:47.752Z,87335.50
2023-04-30T04:02:15.146Z,87334.34
2023-04-30T04:04:43.210Z,87335.06
2023-04-30T04:07:10.395Z,87341.78
2023-04-30T04:09:37.673Z,87338.31
2023-04-30T04:12:05.701Z,87340.16
2023-04-30T04:14:32.923Z,87332.59
2023-04-30T04:17:01.384Z,87333.34
2023-04-30T04:19:28.766Z,87338.59
2023-04-30T04:21:55.964Z,87338.53
2023-04-30T04:24:25.841Z,87342.31
2023-04-30T04:26:53.099Z,87342.66
2023-04-30T04:29:20.687Z,87347.50
2023-04-30T04:31:48.147Z,87356.84
2023-04-30T04:34:15.359Z,87356.53
2023-04-30T04:36:42.806Z,87362.50
2023-04-30T04:39:09.978Z,87361.03
2023-04-30T04:41:37.246Z,87359.94
2023-04-30T04:44:05.361Z,87359.19
2023-04-30T04:46:32.993Z,87361.09
2023-04-30T04:49:00.273Z,87357.34
2023-04-30T04:51:27.482Z,87364.13
2023-04-30T04:53:54.927Z,87361.88
2023-04-30T04:56:22.125Z,87361.94
2023-04-30T04:58:49.312Z,87364.25
2023-04-30T05:01:16.520Z,87361.66
2023-04-30T05:03:43.863Z,87363.19
2023-04-30T05:06:11.303Z,87363.97
2023-04-30T05:08:38.618Z,87370.78
2023-04-30T05:11:05.958Z,87368.56
2023-04-30T05:13:33.322Z,87372.00
2023-04-30T05:16:00.601Z,87366.03
2023-04-30T05:18:27.866Z,87375.06
2023-04-30T05:20:55.118Z,87364.97
2023-04-30T05:23:22.264Z,87374.41
2023-04-30T05:25:53.380Z,87370.34
2023-04-30T05:28:20.773Z,87371.88
2023-04-30T05:30:47.925Z,87365.53
2023-04-30T05:33:15.211Z,87366.31
2023-04-30T05:35:42.464Z,87367.84
2023-04-30T05:38:09.619Z,87367.91
2023-04-30T05:40:37.053Z,87371.69
2023-04-30T05:43:04.257Z,87364.63
2023-04-30T05:45:31.523Z,87371.44
2023-04-30T05:47:59.090Z,87371.91
2023-04-30T05:50:26.364Z,87366.28
2023-04-30T05:52:53.634Z,87365.94
2023-04-30T05:55:20.951Z,87359.94
2023-04-30T05:57:48.297Z,87356.25
2023-04-30T06:00:16.013Z,87354.75
2023-04-30T06:02:43.637Z,87352.53
2023-04-30T06:05:10.876Z,87351.44
2023-04-30T06:07:38.226Z,87352.97
2023-04-30T06:10:06.528Z,87356.75
2023-04-30T06:12:34.135Z,87356.03
2023-04-30T06:15:01.488Z,87353.78
2023-04-30T06:17:28.764Z,87360.19
2023-04-30T06:19:56.147Z,87354.56
2023-04-30T06:22:29.239Z,87366.25
2023-04-30T06:24:56.495Z,87360.63
2023-04-30T06:27:23.990Z,87357.28
2023-04-30T06:29:51.248Z,87367.84
2023-04-30T06:32:18.425Z,87359.94
2023-04-30T06:34:45.542Z,87364.84
2023-04-30T06:37:12.681Z,87365.63
2023-04-30T06:39:41.060Z,87362.22
2023-04-30T06:42:08.356Z,87358.88
2023-04-30T06:44:35.558Z,87351.69
2023-04-30T06:47:03.040Z,87363.75
2023-04-30T06:49:33.131Z,87358.47
2023-04-30T06:52:00.395Z,87357.75
2023-04-30T06:54:27.787Z,87358.13
2023-04-30T06:56:55.114Z,87358.53
2023-04-30T06:59:22.419Z,87355.88
2023-04-30T07:01:49.920Z,87351.00
2023-04-30T07:04:19.471Z,87360.41
2023-04-30T07:06:46.768Z,87355.88
2023-04-30T07:09:14.040Z,87363.41
2023-04-30T07:11:41.279Z,87355.84
2023-04-30T07:14:08.663Z,87357.34
2023-04-30T07:16:36.029Z,87359.94
2023-04-30T07:19:03.403Z,87360.31
2023-04-30T07:21:30.645Z,87361.06
2023-04-30T07:23:57.847Z,87355.78
2023-04-30T07:26:25.264Z,87356.47
2023-04-30T07:28:52.714Z,87349.69
2023-04-30T07:31:20.069Z,87350.41
2023-04-30T07:33:47.324Z,87345.84
2023-04-30T07:36:14.511Z,87350.38
2023-04-30T07:38:41.757Z,87353.00
2023-04-30T07:41:09.222Z,87357.16
2023-04-30T07:43:36.420Z,87355.59
2023-04-30T07:46:03.784Z,87355.94
2023-04-30T07:48:31.370Z,87364.63
2023-04-30T07:50:58.558Z,87356.25
2023-04-30T07:53:26.251Z,87354.69
2023-04-30T07:55:53.680Z,87353.53
2023-04-30T07:58:21.057Z,87359.53
2023-04-30T08:00:48.352Z,87350.06
2023-04-30T08:03:16.073Z,87354.56
2023-04-30T08:05:43.436Z,87354.91
2023-04-30T08:08:10.844Z,87363.22
2023-04-30T08:10:39.210Z,87353.34
2023-04-30T08:13:06.602Z,87347.28
2023-04-30T08:15:37.035Z,87360.50
2023-04-30T08:18:04.396Z,87354.03
2023-04-30T08:20:33.034Z,87354.38
2023-04-30T08:23:00.204Z,87354.78
2023-04-30T08:25:27.539Z,87354.31
2023-04-30T08:27:54.725Z,87354.38
2023-04-30T08:30:21.946Z,87358.16
2023-04-30T08:32:49.548Z,87358.91
2023-04-30T08:35:16.966Z,87353.59
2023-04-30T08:37:44.154Z,87361.47
2023-04-30T08:40:12.326Z,87356.56
2023-04-30T08:43:00.213Z,87364.72
2023-04-30T08:45:28.292Z,87359.03
2023-04-30T08:47:57.621Z,87352.13
2023-04-30T08:50:25.181Z,87362.22
2023-04-30T08:52:52.497Z,87348.84
2023-04-30T08:55:19.862Z,87355.19
2023-04-30T08:57:47.037Z,87352.81
2023-04-30T09:00:14.703Z,87355.03
2023-04-30T09:02:43.999Z,87351.91
2023-04-30T09:05:15.927Z,87349.53
2023-04-30T09:08:01.073Z,87349.09
2023-04-30T09:10:33.629Z,87353.59
2023-04-30T09:13:04.230Z,87353.88
2023-04-30T09:15:34.405Z,87360.56
2023-04-30T09:18:16.997Z,87354.19
2023-04-30T09:21:03.180Z,87354.94
2023-04-30T09:23:30.805Z,87356.00
2023-04-30T09:25:58.092Z,87351.13
2023-04-30T09:28:25.335Z,87352.94
2023-04-30T09:30:53.176Z,87341.50
2023-04-30T09:33:20.694Z,87353.31
2023-04-30T09:35:50.456Z,87342.31
2023-04-30T09:38:33.220Z,87341.50
2023-04-30T09:41:01.942Z,87341.31
2023-04-30T09:43:30.688Z,87334.41
2023-04-30T09:46:00.204Z,87330.44
2023-04-30T09:48:28.564Z,87331.53
2023-04-30T09:50:56.167Z,87321.88
2023-04-30T09:53:23.499Z,87317.09
2023-04-30T09:55:52.636Z,87314.63
2023-04-30T09:58:28.070Z,87312.19
2023-04-30T10:00:59.356Z,87316.44
2023-04-30T10:03:27.041Z,87317.03
2023-04-30T10:05:54.517Z,87308.13
2023-04-30T10:08:44.121Z,87310.25
2023-04-30T10:11:18.459Z,87303.56
2023-04-30T10:13:59.193Z,87297.28
2023-04-30T10:17:14.217Z,87301.25
2023-04-30T10:19:48.463Z,87299.91
2023-04-30T10:22:16.774Z,87296.16
2023-04-30T10:24:44.487Z,87291.97
2023-04-30T10:27:12.170Z,87286.19
2023-04-30T10:29:39.471Z,87284.28
2023-04-30T10:32:07.691Z,87285.50
2023-04-30T10:35:22.843Z,87280.66
2023-04-30T10:38:25.527Z,87275.34
2023-04-30T10:40:57.547Z,87264.75
2023-04-30T10:43:25.928Z,87266.38
2023-04-30T10:45:53.762Z,87254.41
2023-04-30T10:48:23.645Z,87256.63
2023-04-30T10:50:55.599Z,87261.38
2023-04-30T10:53:23.936Z,87261.28
2023-04-30T10:55:58.947Z,87253.59
2023-04-30T10:58:38.884Z,87260.44
2023-04-30T11:01:15.198Z,87262.94
2023-04-30T11:04:06.446Z,87260.63
2023-04-30T11:06:53.049Z,87251.09
2023-04-30T11:09:44.830Z,87257.84
2023-04-30T11:12:19.896Z,87247.72
2023-04-30T11:14:47.516Z,87258.78
2023-04-30T11:17:24.306Z,87250.63
2023-04-30T11:19:53.893Z,87257.72
2023-04-30T11:22:25.229Z,87248.81
2023-04-30T11:25:10.229Z,87248.97
2023-04-30T11:27:42.851Z,87254.09
2023-04-30T11:30:16.649Z,87248.50
2023-04-30T11:32:48.062Z,87252.13
2023-04-30T11:35:19.261Z,87252.28
2023-04-30T11:37:49.020Z,87258.50
2023-04-30T11:40:16.393Z,87253.75
2023-04-30T11:42:46.370Z,87254.41
2023-04-30T11:45:16.763Z,87265.06
2023-04-30T11:47:47.567Z,87266.72
2023-04-30T11:50:21.340Z,87262.56
2023-04-30T11:52:53.379Z,87269.41
2023-04-30T11:55:24.192Z,87247.81
2023-04-30T11:57:54.325Z,87255.34
2023-04-30T12:00:27.030Z,87255.06
2023-04-30T12:02:55.122Z,87259.88
2023-04-30T12:05:26.419Z,87253.75
2023-04-30T12:08:00.447Z,87248.19
2023-04-30T12:10:27.887Z,87246.50
2023-04-30T12:12:55.309Z,87238.94
2023-04-30T12:15:27.488Z,87247.53
2023-04-30T12:18:00.244Z,87239.28
2023-04-30T12:20:31.726Z,87232.91
2023-04-30T12:22:59.113Z,87236.00
2023-04-30T12:25:31.259Z,87233.53
2023-04-30T12:28:00.156Z,87230.81
2023-04-30T12:30:28.026Z,87232.22
2023-04-30T12:32:59.546Z,87236.66
2023-04-30T12:35:30.482Z,87234.28
2023-04-30T12:38:07.164Z,87235.03
2023-04-30T12:40:35.270Z,87228.72
2023-04-30T12:43:09.070Z,87225.47
2023-04-30T12:45:53.006Z,87228.28
2023-04-30T12:48:25.805Z,87232.09
2023-04-30T12:51:01.377Z,87225.50
2023-04-30T12:53:29.972Z,87221.81
2023-04-30T12:56:17.366Z,87218.81
2023-04-30T12:58:47.129Z,87214.38
2023-04-30T13:01:24.821Z,87212.91
2023-04-30T13:03:53.037Z,87209.81
2023-04-30T13:06:22.332Z,87200.81
2023-04-30T13:08:58.585Z,87208.28
2023-04-30T13:11:27.330Z,87198.59
2023-04-30T13:13:55.336Z,87198.22
2023-04-30T13:16:22.812Z,87200.53
2023-04-30T13:18:50.351Z,87195.47
2023-04-30T13:21:17.604Z,87185.31
2023-04-30T13:23:52.788Z,87187.25
2023-04-30T13:26:21.314Z,87183.09
2023-04-30T13:28:48.644Z,87186.66
2023-04-30T13:31:16.014Z,87185.69
2023-04-30T13:33:46.588Z,87178.69
2023-04-30T13:36:14.244Z,87181.72
2023-04-30T13:38:44.299Z,87179.03
2023-04-30T13:41:11.530Z,87181.44
2023-04-30T13:43:42.043Z,87183.00
2023-04-30T13:46:09.917Z,87172.31
2023-04-30T13:48:37.402Z,87177.03
2023-04-30T13:51:04.988Z,87170.13
2023-04-30T13:53:32.473Z,87173.44
2023-04-30T13:55:59.878Z,87177.13
2023-04-30T13:58:27.982Z,87178.25
2023-04-30T14:00:55.314Z,87173.94
2023-04-30T14:03:22.887Z,87173.91
2023-04-30T14:05:50.432Z,87169.63
2023-04-30T14:08:17.820Z,87162.97
2023-04-30T14:10:45.202Z,87164.56
2023-04-30T14:13:12.609Z,87165.81
2023-04-30T14:15:39.840Z,87171.16
2023-04-30T14:18:07.107Z,87160.19
2023-04-30T14:20:34.401Z,87170.66
2023-04-30T14:23:02.810Z,87158.59
2023-04-30T14:25:30.301Z,87167.06
2023-04-30T14:27:57.586Z,87160.84
2023-04-30T14:30:24.851Z,87160.97
2023-04-30T14:32:52.175Z,87169.16
2023-04-30T14:35:19.414Z,87166.25
2023-04-30T14:37:46.603Z,87166.78
2023-04-30T14:40:14.858Z,87165.75
2023-04-30T14:42:42.136Z,87175.81
2023-04-30T14:45:10.301Z,87166.16
2023-04-30T14:47:37.724Z,87162.41
2023-04-30T14:50:05.419Z,87167.44
2023-04-30T14:52:32.725Z,87168.78
2023-04-30T14:55:02.138Z,87169.22
2023-04-30T14:57:29.414Z,87169.53
2023-04-30T14:59:56.841Z,87166.88
2023-04-30T15:02:24.545Z,87178.94
2023-04-30T15:04:51.859Z,87180.50
2023-04-30T15:07:20.171Z,87180.63
2023-04-30T15:09:47.710Z,87176.56
2023-04-30T15:12:15.083Z,87193.47
2023-04-30T15:14:42.346Z,87190.75
2023-04-30T15:17:09.760Z,87216.84
2023-04-30T15:19:36.953Z,87220.59
2023-04-30T15:22:04.117Z,87227.19
2023-04-30T15:24:31.512Z,87223.59
2023-04-30T15:26:58.866Z,87220.94
2023-04-30T15:29:26.240Z,87224.09
2023-04-30T15:31:53.508Z,87230.19
2023-04-30T15:34:22.390Z,87234.63
2023-04-30T15:36:50.436Z,87233.75
2023-04-30T15:39:18.024Z,87236.75
2023-04-30T15:41:45.310Z,87233.34
2023-04-30T15:44:12.525Z,87232.13
2023-04-30T15:46:39.814Z,87241.63
2023-04-30T15:49:10.003Z,87242.91
2023-04-30T15:51:37.365Z,87244.84
2023-04-30T15:54:05.000Z,87241.47
2023-04-30T15:56:32.338Z,87239.28
2023-04-30T15:58:59.570Z,87240.03
2023-04-30T16:01:26.897Z,87247.59
2023-04-30T16:03:55.465Z,87242.28
2023-04-30T16:06:23.119Z,87248.00
2023-04-30T16:08:50.453Z,87254.19
2023-04-30T16:11:17.726Z,87252.41
2023-04-30T16:13:44.906Z,87257.44
2023-04-30T16:16:12.176Z,87257.03
2023-04-30T16:18:39.363Z,87263.50
2023-04-30T16:21:06.759Z,87259.00
2023-04-30T16:23:33.985Z,87262.19
2023-04-30T16:26:01.129Z,87259.66
2023-04-30T16:28:28.623Z,87264.97
2023-04-30T16:30:56.216Z,87258.53
2023-04-30T16:33:23.526Z,87269.09
2023-04-30T16:35:51.307Z,87264.97
2023-04-30T16:38:18.489Z,87269.06
2023-04-30T16:40:46.165Z,87275.06
2023-04-30T16:43:13.609Z,87267.44
2023-04-30T16:45:40.843Z,87276.22
2023-04-30T16:48:08.492Z,87286.44
2023-04-30T16:50:37.196Z,87283.78
2023-04-30T16:53:04.599Z,87288.56
2023-04-30T16:55:31.999Z,87296.97
2023-04-30T16:57:59.231Z,87294.66
2023-04-30T17:00:26.540Z,87306.41
2023-04-30T17:02:54.001Z,87303.81
2023-04-30T17:05:24.286Z,87300.13
2023-04-30T17:07:51.538Z,87301.44
2023-04-30T17:10:19.110Z,87296.09
2023-04-30T17:12:46.449Z,87297.22
2023-04-30T17:15:13.620Z,87290.38
2023-04-30T17:17:40.965Z,87283.94
2023-04-30T17:20:08.924Z,87291.13
2023-04-30T17:22:36.074Z,87291.13
2023-04-30T17:25:03.388Z,87282.09
2023-04-30T17:27:30.842Z,87288.28
2023-04-30T17:29:58.343Z,87290.53
2023-04-30T17:32:25.834Z,87282.28
2023-04-30T17:34:53.097Z,87292.28
2023-04-30T17:37:20.605Z,87291.16
2023-04-30T17:39:47.993Z,87289.66
2023-04-30T17:42:15.228Z,87284.75
2023-04-30T17:44:42.655Z,87287.81
2023-04-30T17:47:10.015Z,87288.97
2023-04-30T17:49:37.359Z,87292.03
2023-04-30T17:52:05.817Z,87284.47
2023-04-30T17:54:33.155Z,87282.59
2023-04-30T17:57:00.660Z,87294.78
2023-04-30T17:59:29.548Z,87288.72
2023-04-30T18:01:57.076Z,87288.16
2023-04-30T18:04:25.672Z,87294.28
2023-04-30T18:06:53.168Z,87290.91
2023-04-30T18:09:20.443Z,87298.09
2023-04-30T18:11:47.806Z,87297.41
2023-04-30T18:14:15.106Z,87311.41
2023-04-30T18:16:42.537Z,87298.22
2023-04-30T18:19:09.873Z,87304.28
2023-04-30T18:21:37.066Z,87297.88
2023-04-30T18:24:04.850Z,87305.09
2023-04-30T18:26:32.087Z,87309.31
2023-04-30T18:28:59.498Z,87310.47
2023-04-30T18:31:27.302Z,87310.47
2023-04-30T18:33:54.536Z,87309.38
2023-04-30T18:36:21.918Z,87326.81
2023-04-30T18:38:49.165Z,87320.03
2023-04-30T18:41:19.458Z,87319.31
2023-04-30T18:43:46.746Z,87323.13
2023-04-30T18:46:14.179Z,87320.50
2023-04-30T18:48:41.446Z,87324.31
2023-04-30T18:51:08.745Z,87331.19
2023-04-30T18:53:36.300Z,87334.22
2023-04-30T18:56:03.565Z,87343.34
2023-04-30T18:58:30.768Z,87339.63
2023-04-30T19:00:58.377Z,87344.16
2023-04-30T19:03:25.764Z,87347.19
2023-04-30T19:05:56.804Z,87340.47
2023-04-30T19:08:24.271Z,87343.16
2023-04-30T19:10:51.734Z,87351.84
2023-04-30T19:13:19.486Z,87345.47
2023-04-30T19:15:47.228Z,87353.06
2023-04-30T19:18:17.707Z,87361.78
2023-04-30T19:20:57.714Z,87361.78
2023-04-30T19:23:25.292Z,87364.47
2023-04-30T19:25:52.868Z,87367.09
2023-04-30T19:28:20.674Z,87379.56
2023-04-30T19:30:50.868Z,87379.94
2023-04-30T19:33:18.477Z,87378.44
2023-04-30T19:35:51.431Z,87382.97
2023-04-30T19:38:19.332Z,87387.13
2023-04-30T19:40:51.237Z,87386.00
2023-04-30T19:43:25.182Z,87386.38
2023-04-30T19:45:54.751Z,87379.19
2023-04-30T19:48:23.590Z,87379.97
2023-04-30T19:50:52.438Z,87376.16
2023-04-30T19:53:20.842Z,87387.50
2023-04-30T19:55:48.548Z,87379.19
2023-04-30T19:58:16.221Z,87381.50
2023-04-30T20:00:45.370Z,87378.47
2023-04-30T20:03:14.876Z,87382.25
2023-04-30T20:05:42.904Z,87376.94
2023-04-30T20:08:10.879Z,87371.66
2023-04-30T20:10:39.209Z,87373.94
2023-04-30T20:13:07.442Z,87373.56
2023-04-30T20:15:35.168Z,87378.09
2023-04-30T20:18:02.821Z,87379.59
2023-04-30T20:20:30.409Z,87371.66
2023-04-30T20:22:58.348Z,87382.25
2023-04-30T20:25:26.262Z,87378.09
2023-04-30T20:27:54.019Z,87377.34
2023-04-30T20:30:21.680Z,87383.00
2023-04-30T20:32:49.423Z,87373.97
2023-04-30T20:35:16.984Z,87370.56
2023-04-30T20:37:44.887Z,87372.06
2023-04-30T20:40:12.910Z,87375.09
2023-04-30T20:42:40.564Z,87373.22
2023-04-30T20:45:08.929Z,87370.56
2023-04-30T20:47:36.589Z,87378.09
2023-04-30T20:50:04.454Z,87383.41
2023-04-30T20:52:31.952Z,87386.78
2023-04-30T20:54:59.733Z,87386.78
2023-04-30T20:57:27.406Z,87391.31
2023-04-30T20:59:55.273Z,87390.94
2023-04-30T21:02:23.059Z,87388.66
2023-04-30T21:04:50.640Z,87388.28
2023-04-30T21:07:18.203Z,87383.75
2023-04-30T21:09:45.908Z,87374.66
2023-04-30T21:12:13.560Z,87376.94
2023-04-30T21:14:41.187Z,87376.94
2023-04-30T21:17:08.843Z,87375.44
2023-04-30T21:19:36.385Z,87382.59
2023-04-30T21:22:04.024Z,87380.72
2023-04-30T21:24:31.840Z,87383.75
2023-04-30T21:26:59.444Z,87384.50
2023-04-30T21:29:27.217Z,87381.50
2023-04-30T21:31:54.759Z,87383.00
2023-04-30T21:34:22.369Z,87390.22
2023-04-30T21:36:50.590Z,87380.78
2023-04-30T21:39:18.279Z,87384.16
2023-04-30T21:41:45.889Z,87378.88
2023-04-30T21:44:14.033Z,87381.53
2023-04-30T21:46:41.682Z,87382.28
2023-04-30T21:49:09.218Z,87383.44
2023-04-30T21:51:36.782Z,87377.38
2023-04-30T21:54:04.803Z,87378.88
2023-04-30T21:56:32.501Z,87378.13
2023-04-30T21:59:00.138Z,87370.59
2023-04-30T22:01:27.712Z,87377.38
2023-04-30T22:03:55.699Z,87380.41
2023-04-30T22:06:23.441Z,87372.09
2023-04-30T22:08:51.046Z,87371.72
2023-04-30T22:11:18.551Z,87374.72
2023-04-30T22:13:46.110Z,87377.00
2023-04-30T22:16:13.750Z,87368.31
2023-04-30T22:18:41.334Z,87370.19
2023-04-30T22:21:08.862Z,87367.94
2023-04-30T22:23:36.692Z,87372.84
2023-04-30T22:26:04.248Z,87374.34
2023-04-30T22:28:31.860Z,87373.63
2023-04-30T22:31:00.251Z,87364.94
2023-04-30T22:33:27.935Z,87366.81
2023-04-30T22:35:56.048Z,87362.66
2023-04-30T22:38:23.570Z,87365.69
2023-04-30T22:40:51.556Z,87367.19
2023-04-30T22:43:19.214Z,87365.69
2023-04-30T22:45:46.788Z,87361.16
2023-04-30T22:48:14.496Z,87367.19
2023-04-30T22:50:42.382Z,87366.06
2023-04-30T22:53:09.913Z,87372.47
2023-04-30T22:55:37.592Z,87369.47
2023-04-30T22:58:05.088Z,87367.22
2023-04-30T23:03:00.530Z,87362.28
2023-04-30T23:05:28.246Z,87370.97
2023-04-30T23:07:55.768Z,87368.31
2023-04-30T23:10:23.372Z,87362.69
2023-04-30T23:12:51.214Z,87370.59
2023-04-30T23:15:18.816Z,87367.56
2023-04-30T23:17:46.744Z,87362.31
2023-04-30T23:20:14.483Z,87366.81
2023-04-30T23:22:42.063Z,87358.16
2023-04-30T23:25:09.766Z,87361.53
2023-04-30T23:27:37.312Z,87356.59
2023-04-30T23:30:05.481Z,87359.25
2023-04-30T23:32:33.096Z,87355.84
2023-04-30T23:35:00.648Z,87356.22
2023-04-30T23:37:28.275Z,87355.84
2023-04-30T23:39:56.059Z,87355.06
2023-04-30T23:42:23.884Z,87342.25
2023-04-30T23:44:51.417Z,87345.28
2023-04-30T23:47:19.020Z,87340.38
2023-04-30T23:49:46.707Z,87341.50
2023-04-30T23:52:14.304Z,87345.66
2023-04-30T23:54:42.122Z,87338.50
2023-04-30T23:57:09.877Z,87337.00
2023-04-30T23:59:37.673Z,87332.44
